Time;durP1;ratioP1;P1;durP2;ratioP2;P2;SDS_P1;SDS_P2;PMS_P1;PMS_P2;Temp;Humidity;BMP_temperature;BMP_pressure;BME280_temperature;BME280_humidity;BME280_pressure;Samples;Min_cycle;Max_cycle;Signal;HPM_P1;HPM_P2
2023/08/11 00:01:41;;;;;;;8.25;6.20;;;;;;;-145.63;46.45;38597.94;5030254;28;20037;-67
2023/08/11 00:04:07;;;;;;;6.78;5.93;;;;;;;-145.63;46.44;38554.94;5033694;28;20279;-65
2023/08/11 00:06:33;;;;;;;7.93;6.47;;;;;;;-145.63;46.38;38556.88;5039712;28;20049;-67
2023/08/11 00:08:59;;;;;;;9.38;6.47;;;;;;;-145.63;46.26;38574.47;5024402;28;20026;-67
2023/08/11 00:11:26;;;;;;;9.15;6.47;;;;;;;-145.63;46.55;38605.78;5044257;28;20125;-66
2023/08/11 00:13:52;;;;;;;12.35;6.85;;;;;;;-145.63;46.61;38586.22;5028588;28;20033;-66
2023/08/11 00:16:18;;;;;;;7.30;6.43;;;;;;;-145.63;46.87;38617.50;5034650;28;20033;-67
2023/08/11 00:18:45;;;;;;;10.70;6.95;;;;;;;-145.63;47.03;38617.50;5037901;28;20180;-66
2023/08/11 00:21:12;;;;;;;9.07;7.43;;;;;;;-145.63;47.24;38566.66;5025531;28;20570;-66
2023/08/11 00:23:39;;;;;;;14.05;8.45;;;;;;;-145.63;47.26;38588.16;5043821;28;20085;-66
2023/08/11 00:26:06;;;;;;;8.30;7.47;;;;;;;-145.63;47.32;38609.69;5026633;28;20048;-65
2023/08/11 00:28:32;;;;;;;12.20;8.35;;;;;;;-145.63;47.79;38652.69;5031940;28;20033;-65
2023/08/11 00:30:58;;;;;;;8.70;7.80;;;;;;;-145.63;47.53;38635.09;5031539;28;20041;-65
2023/08/11 00:33:23;;;;;;;9.18;7.15;;;;;;;-145.63;47.69;38619.47;5041074;28;20024;-66
2023/08/11 00:35:49;;;;;;;9.57;7.57;;;;;;;-145.63;47.83;38652.69;5023464;28;20037;-66
2023/08/11 00:38:15;;;;;;;10.30;7.28;;;;;;;-145.63;47.98;38621.41;5041409;28;20029;-66
2023/08/11 00:40:41;;;;;;;11.07;6.75;;;;;;;-145.63;48.18;38660.53;5040265;28;20043;-64
2023/08/11 00:43:06;;;;;;;9.13;7.70;;;;;;;-145.63;48.42;38623.38;5025652;28;20077;-65
2023/08/11 00:45:33;;;;;;;11.73;8.55;;;;;;;-145.63;48.41;38637.06;5043334;28;20095;-65
2023/08/11 00:48:00;;;;;;;9.45;8.15;;;;;;;-145.63;48.50;38648.78;5044178;28;20057;-65
2023/08/11 00:50:26;;;;;;;8.63;6.90;;;;;;;-145.63;48.43;38670.28;5022877;28;20211;-66
2023/08/11 00:52:52;;;;;;;11.98;7.85;;;;;;;-145.63;48.54;38654.66;5023948;28;20026;-66
2023/08/11 00:55:18;;;;;;;10.30;7.72;;;;;;;-145.63;48.98;38648.78;5033987;28;20132;-66
2023/08/11 00:57:46;;;;;;;11.65;7.45;;;;;;;-145.63;48.94;38664.44;5037687;28;20048;-66
2023/08/11 01:00:14;;;;;;;8.70;7.07;;;;;;;-145.63;48.99;38674.22;5024528;28;20026;-66
2023/08/11 01:02:42;;;;;;;9.50;7.18;;;;;;;-145.63;49.11;38658.56;5043578;28;20036;-65
2023/08/11 01:05:19;;;;;;;7.50;6.70;;;;;;;-145.63;49.25;38672.25;5026920;28;20046;-66
2023/08/11 01:08:02;;;;;;;9.00;6.63;;;;;;;-145.63;49.19;38650.75;5036835;28;20322;-66
2023/08/11 01:10:46;;;;;;;9.98;7.47;;;;;;;-145.63;49.66;38644.88;5031568;28;20033;-65
2023/08/11 01:13:19;;;;;;;8.85;6.80;;;;;;;-145.63;49.48;38684.00;5032657;28;20029;-66
2023/08/11 01:15:59;;;;;;;10.07;7.15;;;;;;;-145.63;49.60;38562.75;5037721;28;20021;-66
2023/08/11 01:18:26;;;;;;;11.23;7.57;;;;;;;-145.63;49.62;38511.91;5026444;28;20048;-65
2023/08/11 01:20:59;;;;;;;11.27;6.88;;;;;;;-145.63;49.82;38400.47;5042786;28;20025;-67
2023/08/11 01:23:26;;;;;;;8.70;7.20;;;;;;;-145.63;50.08;38652.69;5023587;28;20026;-66
2023/08/11 01:25:53;;;;;;;9.02;6.50;;;;;;;-145.63;49.68;38668.34;5037390;28;20032;-66
2023/08/11 01:28:19;;;;;;;8.98;7.32;;;;;;;-145.63;49.74;38668.34;5032934;28;20021;-65
2023/08/11 01:30:45;;;;;;;8.75;7.53;;;;;;;-145.63;49.81;38723.09;5027273;28;20064;-65
2023/08/11 01:33:10;;;;;;;9.70;7.32;;;;;;;-145.63;50.00;38764.16;5042576;28;20060;-66
2023/08/11 01:35:36;;;;;;;9.30;7.25;;;;;;;-145.63;50.12;38809.13;5022969;28;20044;-66
2023/08/11 01:38:02;;;;;;;17.52;12.93;;;;;;;-145.63;50.34;38680.06;5037788;28;20075;-67
2023/08/11 01:40:29;;;;;;;13.02;8.25;;;;;;;-145.63;50.20;38705.50;5038631;28;20317;-67
2023/08/11 01:42:59;;;;;;;8.68;7.57;;;;;;;-145.63;50.06;38709.41;5023079;28;20034;-66
2023/08/11 01:45:27;;;;;;;10.75;8.30;;;;;;;-145.63;50.12;38699.63;5041296;28;20245;-66
2023/08/11 01:47:54;;;;;;;9.93;7.70;;;;;;;-145.63;50.17;38693.75;5042780;28;20030;-66
2023/08/11 01:50:21;;;;;;;10.45;7.32;;;;;;;-145.63;50.26;38717.22;5043521;28;20037;-67
2023/08/11 01:52:48;;;;;;;9.35;6.88;;;;;;;-145.63;50.71;38727.00;5033000;28;20045;-65
2023/08/11 01:55:15;;;;;;;9.98;7.57;;;;;;;-145.63;50.99;38736.78;5035886;28;20033;-65
2023/08/11 01:57:41;;;;;;;9.27;6.95;;;;;;;-145.63;50.57;38725.06;5041997;28;20053;-66
2023/08/11 02:00:12;;;;;;;10.18;7.30;;;;;;;-145.63;50.90;38723.09;5026574;28;20325;-66
2023/08/11 02:02:37;;;;;;;11.88;8.07;;;;;;;-145.63;51.31;38727.00;5026823;28;20029;-65
2023/08/11 02:05:06;;;;;;;10.40;7.38;;;;;;;-145.63;51.12;38713.31;5042597;28;20045;-66
2023/08/11 02:07:32;;;;;;;9.85;7.35;;;;;;;-145.63;50.51;38740.69;5034801;28;20041;-66
2023/08/11 02:09:57;;;;;;;10.50;8.30;;;;;;;-145.63;51.35;38732.88;5033131;28;20073;-65
2023/08/11 02:12:23;;;;;;;13.43;8.48;;;;;;;-145.63;51.08;38715.28;5044255;28;20021;-65
2023/08/11 02:14:49;;;;;;;10.00;7.40;;;;;;;-145.63;51.01;38715.28;5026242;28;20061;-65
2023/08/11 02:17:15;;;;;;;12.50;8.55;;;;;;;-145.63;50.92;38725.06;5043551;28;20035;-65
2023/08/11 02:19:40;;;;;;;11.20;8.38;;;;;;;-145.63;51.04;38742.66;5045753;28;20268;-66
2023/08/11 02:22:06;;;;;;;10.07;7.72;;;;;;;-145.63;51.57;38654.66;5038190;28;20125;-65
2023/08/11 02:24:32;;;;;;;10.23;8.35;;;;;;;-145.63;51.68;38723.09;5029309;28;20029;-66
2023/08/11 02:26:57;;;;;;;11.95;7.35;;;;;;;-145.63;52.08;38734.81;5046062;28;20060;-66
2023/08/11 02:29:24;;;;;;;14.18;7.50;;;;;;;-145.63;51.91;38707.44;5027716;28;20030;-65
2023/08/11 02:31:49;;;;;;;15.57;7.80;;;;;;;-145.63;51.68;38713.31;5039255;28;20407;-65
2023/08/11 02:34:15;;;;;;;10.73;8.15;;;;;;;-145.63;52.28;38703.53;5036868;28;20030;-66
2023/08/11 02:36:41;;;;;;;9.60;7.10;;;;;;;-145.63;52.06;38742.66;5028830;28;20025;-65
2023/08/11 02:39:07;;;;;;;11.98;7.15;;;;;;;-145.63;52.40;38746.56;5045908;28;20033;-65
2023/08/11 02:41:34;;;;;;;9.75;6.97;;;;;;;-145.63;52.61;38789.59;5036452;28;20037;-66
2023/08/11 02:44:00;;;;;;;10.13;7.28;;;;;;;-145.63;52.96;38754.38;5041100;28;20029;-66
2023/08/11 02:46:27;;;;;;;8.40;7.30;;;;;;;-145.63;53.29;38785.66;5026113;28;20048;-66
2023/08/11 02:48:52;;;;;;;8.73;7.63;;;;;;;-145.63;53.48;38752.44;5025786;28;20025;-64
2023/08/11 02:51:19;;;;;;;13.80;7.40;;;;;;;-145.63;52.80;38785.66;5025498;28;20030;-65
2023/08/11 02:53:44;;;;;;;11.73;7.45;;;;;;;-145.63;53.20;38746.56;5025734;28;20088;-66
2023/08/11 02:56:15;;;;;;;8.48;7.20;;;;;;;-145.63;52.67;38760.25;5041813;28;20052;-67
2023/08/11 02:58:43;;;;;;;12.18;7.43;;;;;;;-145.63;52.52;38717.22;5045284;28;20044;-66
2023/08/11 03:01:09;;;;;;;9.15;7.00;;;;;;;-145.63;52.67;38672.25;5036959;28;20038;-66
2023/08/11 03:03:35;;;;;;;10.32;6.82;;;;;;;-145.63;52.68;38703.53;5025306;28;20061;-67
2023/08/11 03:06:01;;;;;;;9.77;7.28;;;;;;;-145.63;52.71;38699.63;5025545;28;20503;-66
2023/08/11 03:08:27;;;;;;;8.00;6.53;;;;;;;-145.63;52.52;38674.22;5044106;28;20029;-66
2023/08/11 03:10:53;;;;;;;7.65;6.90;;;;;;;-145.63;52.37;38664.44;5031249;28;20026;-65
2023/08/11 03:13:20;;;;;;;9.77;6.97;;;;;;;-145.63;52.23;38652.69;5034622;28;20037;-66
2023/08/11 03:15:46;;;;;;;9.90;6.43;;;;;;;-145.63;51.98;38629.22;5040350;28;20048;-67
2023/08/11 03:18:11;;;;;;;9.95;6.22;;;;;;;-145.63;51.66;38660.53;5025166;28;20208;-67
2023/08/11 03:20:38;;;;;;;7.93;6.47;;;;;;;-145.63;51.79;38605.78;5044822;28;20372;-67
2023/08/11 03:23:04;;;;;;;10.85;7.13;;;;;;;-145.63;51.75;38621.41;5040852;28;20026;-66
2023/08/11 03:25:30;;;;;;;7.55;6.60;;;;;;;-145.63;52.18;38637.06;5025429;28;20092;-67
2023/08/11 03:27:56;;;;;;;9.50;6.55;;;;;;;-145.63;51.98;38656.59;5024906;28;20029;-65
2023/08/11 03:30:23;;;;;;;7.78;6.55;;;;;;;-145.63;51.66;38613.59;5026345;28;20364;-65
2023/08/11 03:32:49;;;;;;;11.27;6.85;;;;;;;-145.63;51.68;38421.97;5044631;28;20324;-65
2023/08/11 03:35:17;;;;;;;9.63;6.95;;;;;;;-145.63;51.92;38635.09;5040335;28;20049;-66
2023/08/11 03:37:43;;;;;;;7.32;6.53;;;;;;;-145.63;51.68;38627.28;5024649;28;20105;-66
2023/08/11 03:40:12;;;;;;;7.47;6.38;;;;;;;-145.63;51.75;38637.06;5024754;28;20029;-65
2023/08/11 03:42:42;;;;;;;8.80;6.47;;;;;;;-145.63;51.47;38601.84;5040967;28;20026;-66
2023/08/11 03:45:11;;;;;;;9.20;7.07;;;;;;;-145.63;51.55;38058.28;5040695;28;20025;-66
2023/08/11 03:47:37;;;;;;;13.50;6.65;;;;;;;-145.63;51.38;38560.78;5024743;28;20144;-65
2023/08/11 03:50:04;;;;;;;9.18;6.18;;;;;;;-145.63;51.18;38574.47;5039086;28;20029;-65
2023/08/11 03:52:30;;;;;;;7.50;5.95;;;;;;;-145.63;51.02;38578.41;5034000;28;20080;-65
2023/08/11 03:54:55;;;;;;;6.80;6.05;;;;;;;-145.63;51.06;38594.03;5029833;28;20249;-65
2023/08/11 03:57:22;;;;;;;7.78;5.72;;;;;;;-145.63;50.76;38519.72;5043310;28;20021;-66
2023/08/11 03:59:47;;;;;;;7.95;5.13;;;;;;;-145.63;50.99;38529.50;5024327;28;20026;-66
2023/08/11 04:02:13;;;;;;;10.32;5.95;;;;;;;-145.63;50.83;38551.03;5040205;28;20044;-66
2023/08/11 04:04:39;;;;;;;7.82;5.78;;;;;;;-145.63;50.61;38470.84;5032092;28;20045;-66
2023/08/11 04:07:05;;;;;;;6.28;5.68;;;;;;;-145.63;50.94;38523.66;5030754;28;20075;-65
2023/08/11 04:09:31;;;;;;;7.72;6.13;;;;;;;-145.63;50.92;38580.34;5042119;28;20029;-66
2023/08/11 04:11:57;;;;;;;6.78;5.35;;;;;;;-145.63;50.92;38525.59;5024191;28;20060;-66
2023/08/11 04:14:22;;;;;;;7.80;5.72;;;;;;;-145.63;50.91;38533.41;5040280;28;20025;-66
2023/08/11 04:16:48;;;;;;;8.45;6.00;;;;;;;-145.63;50.81;38500.19;5031133;28;20030;-67
2023/08/11 04:19:14;;;;;;;8.35;5.35;;;;;;;-145.63;50.11;38468.91;5030524;28;20025;-65
2023/08/11 04:21:40;;;;;;;5.63;5.13;;;;;;;-145.63;50.11;38457.16;5040322;28;20026;-66
2023/08/11 04:24:06;;;;;;;6.63;5.43;;;;;;;-145.63;50.12;38457.16;5024106;28;20033;-66
2023/08/11 04:26:34;;;;;;;7.63;5.50;;;;;;;-145.63;50.07;38437.59;5042222;28;20092;-65
2023/08/11 04:29:03;;;;;;;9.93;5.40;;;;;;;-145.63;49.72;38406.31;5043144;28;20036;-66
2023/08/11 04:31:30;;;;;;;8.63;5.13;;;;;;;-145.63;49.83;38433.69;5043175;28;20033;-67
2023/08/11 04:33:56;;;;;;;8.88;5.00;;;;;;;-145.63;49.68;38445.44;5037906;28;20033;-65
2023/08/11 04:36:22;;;;;;;7.20;4.68;;;;;;;-145.63;49.82;38435.66;5023741;28;20049;-66
2023/08/11 04:38:48;;;;;;;6.07;4.75;;;;;;;-145.63;49.91;38425.88;5024015;28;20091;-65
2023/08/11 04:41:14;;;;;;;6.75;4.80;;;;;;;-145.63;49.66;38412.19;5031304;28;20022;-66
2023/08/11 04:43:39;;;;;;;6.32;4.78;;;;;;;-145.63;49.99;38421.97;5034401;28;20117;-66
2023/08/11 04:46:05;;;;;;;7.95;4.60;;;;;;;-145.63;49.39;38378.94;5043390;28;20091;-65
2023/08/11 04:48:31;;;;;;;7.57;5.03;;;;;;;-145.63;49.79;38398.50;5041651;28;20032;-66
2023/08/11 04:50:58;;;;;;;8.93;4.55;;;;;;;-145.63;49.61;38416.09;5023629;28;20044;-66
2023/08/11 04:53:24;;;;;;;5.50;4.25;;;;;;;-145.63;49.95;38408.28;5040617;28;20028;-66
2023/08/11 04:55:51;;;;;;;7.63;5.05;;;;;;;-145.63;49.71;38406.31;5030901;28;20022;-65
2023/08/11 04:58:18;;;;;;;6.05;4.68;;;;;;;-145.63;49.74;38386.78;5023196;28;20044;-66
2023/08/11 05:00:44;;;;;;;5.10;4.60;;;;;;;-145.63;49.63;38380.91;5026597;28;20029;-65
2023/08/11 05:03:10;;;;;;;6.25;5.07;;;;;;;-145.63;49.71;38425.88;5043141;28;20055;-68
2023/08/11 05:05:35;;;;;;;8.70;4.80;;;;;;;-145.63;49.29;38386.78;5024613;28;20048;-66
2023/08/11 05:08:02;;;;;;;5.97;5.38;;;;;;;-145.63;49.33;38398.50;5037093;28;20021;-66
2023/08/11 05:10:27;;;;;;;9.93;5.78;;;;;;;-145.63;49.37;38371.13;5033937;28;20076;-65
2023/08/11 05:12:53;;;;;;;7.55;4.97;;;;;;;-145.63;49.91;38390.69;5027678;28;20059;-65
2023/08/11 05:15:19;;;;;;;6.82;4.82;;;;;;;-145.63;50.21;38418.06;5043137;28;20036;-66
2023/08/11 05:17:45;;;;;;;5.90;4.97;;;;;;;-145.63;50.03;38441.53;5043023;28;20052;-66
2023/08/11 05:20:11;;;;;;;7.32;5.07;;;;;;;-145.63;50.01;38427.84;5027787;28;20290;-65
2023/08/11 05:22:37;;;;;;;6.97;5.15;;;;;;;-145.63;50.44;38421.97;5033372;28;20321;-65
2023/08/11 05:25:04;;;;;;;5.40;4.90;;;;;;;-145.63;50.75;38449.34;5039304;28;20333;-66
2023/08/11 05:27:30;;;;;;;7.18;4.07;;;;;;;-145.63;51.29;38490.41;5027183;28;20071;-66
2023/08/11 05:29:56;;;;;;;5.32;4.82;;;;;;;-145.63;51.25;38527.56;5027156;28;20105;-66
2023/08/11 05:32:23;;;;;;;7.15;5.10;;;;;;;-145.63;52.31;38459.13;5043517;28;20033;-66
2023/08/11 05:34:50;;;;;;;10.70;5.68;;;;;;;-145.63;52.52;38517.78;5035307;28;20022;-65
2023/08/11 05:37:16;;;;;;;7.43;5.40;;;;;;;-145.63;53.15;38463.03;5034489;28;20038;-65
2023/08/11 05:39:44;;;;;;;8.38;5.72;;;;;;;-145.63;54.13;38511.91;5043939;28;20037;-65
2023/08/11 05:42:10;;;;;;;8.40;6.07;;;;;;;-145.63;55.38;38558.84;5042518;28;20037;-65
2023/08/11 05:44:36;;;;;;;6.68;5.85;;;;;;;-145.63;55.45;38537.34;5040086;28;20029;-65
2023/08/11 05:47:03;;;;;;;7.97;6.20;;;;;;;-145.63;55.95;38558.84;5033007;28;20032;-66
2023/08/11 05:49:28;;;;;;;8.98;6.75;;;;;;;-145.63;56.24;38597.94;5035628;28;20029;-66
2023/08/11 05:51:55;;;;;;;11.60;6.68;;;;;;;-145.63;55.73;38566.66;5042023;28;20061;-65
2023/08/11 05:54:20;;;;;;;10.52;7.35;;;;;;;-145.63;56.24;38509.97;5026846;28;20045;-66
2023/08/11 05:56:46;;;;;;;7.45;6.63;;;;;;;-145.63;55.78;38527.56;5026523;28;20038;-65
2023/08/11 05:59:12;;;;;;;7.28;6.57;;;;;;;-145.63;56.10;38535.38;5041374;28;20229;-65
2023/08/11 06:01:37;;;;;;;13.95;7.53;;;;;;;-145.63;55.71;38525.59;5036084;28;20048;-65
2023/08/11 06:04:03;;;;;;;9.43;8.10;;;;;;;-145.63;55.71;38498.22;5032096;28;20041;-66
2023/08/11 06:06:31;;;;;;;11.52;8.40;;;;;;;-145.63;55.49;38509.97;5045633;28;20097;-66
2023/08/11 06:08:57;;;;;;;9.63;7.97;;;;;;;-145.63;55.97;38513.88;5026463;28;20032;-65
2023/08/11 06:11:23;;;;;;;11.57;7.80;;;;;;;-145.63;55.91;38519.72;5042699;28;20337;-65
2023/08/11 06:13:48;;;;;;;9.75;7.90;;;;;;;-145.63;56.14;38533.41;5034512;28;20018;-66
2023/08/11 06:16:14;;;;;;;9.25;8.15;;;;;;;-145.63;56.23;38515.81;5032964;28;20187;-65
2023/08/11 06:18:39;;;;;;;9.75;8.60;;;;;;;-145.63;56.47;38484.53;5026289;28;20044;-66
2023/08/11 06:21:06;;;;;;;12.98;8.70;;;;;;;-145.63;55.86;38496.28;5026231;28;20089;-66
2023/08/11 06:23:32;;;;;;;10.45;8.65;;;;;;;-145.63;55.78;38453.25;5042493;28;20029;-65
2023/08/11 06:25:58;;;;;;;9.95;8.00;;;;;;;-145.63;55.35;38468.91;5033351;28;20030;-65
2023/08/11 06:28:23;;;;;;;9.40;8.38;;;;;;;-145.63;55.03;38492.34;5025821;28;20025;-65
2023/08/11 06:30:49;;;;;;;9.38;8.32;;;;;;;-145.63;55.28;38468.91;5029162;28;20033;-67
2023/08/11 06:33:15;;;;;;;10.73;8.48;;;;;;;-145.63;55.18;38445.44;5046073;28;20052;-67
2023/08/11 06:35:42;;;;;;;9.80;8.32;;;;;;;-145.63;54.86;38423.91;5040429;28;20049;-65
2023/08/11 06:38:09;;;;;;;12.63;8.95;;;;;;;-145.63;55.59;38490.41;5025393;28;20032;-66
2023/08/11 06:40:36;;;;;;;11.13;8.70;;;;;;;-145.63;55.20;38494.31;5031799;28;20350;-65
2023/08/11 06:43:01;;;;;;;11.13;9.18;;;;;;;-145.63;55.15;38285.09;5030639;28;20502;-66
2023/08/11 06:45:27;;;;;;;10.15;9.02;;;;;;;-145.63;55.13;38431.75;5045690;28;20038;-66
2023/08/11 06:47:53;;;;;;;9.57;8.57;;;;;;;-145.63;54.86;38441.53;5041670;28;20026;-65
2023/08/11 06:50:19;;;;;;;12.18;9.70;;;;;;;-145.63;54.81;38418.06;5045455;28;20041;-66
2023/08/11 06:52:45;;;;;;;11.63;8.85;;;;;;;-145.63;55.02;38445.44;5034733;28;20022;-66
2023/08/11 06:55:11;;;;;;;11.23;10.02;;;;;;;-145.63;55.20;38498.22;5031279;28;20334;-66
2023/08/11 06:57:37;;;;;;;11.65;10.23;;;;;;;-145.63;54.68;38464.97;5044023;28;20067;-66
2023/08/11 07:00:07;;;;;;;15.15;10.30;;;;;;;-145.63;54.57;38445.44;5025612;28;20080;-67
2023/08/11 07:02:33;;;;;;;10.70;9.60;;;;;;;-145.63;54.17;38416.09;5042484;28;20032;-65
2023/08/11 07:04:59;;;;;;;14.95;10.65;;;;;;;-145.63;54.67;38429.78;5032391;28;20045;-65
2023/08/11 07:07:24;;;;;;;16.90;10.65;;;;;;;-145.63;54.39;38459.13;5032771;28;20029;-66
2023/08/11 07:09:50;;;;;;;16.90;11.40;;;;;;;-145.63;54.28;38427.84;5041660;28;20034;-65
2023/08/11 07:12:16;;;;;;;14.93;11.00;;;;;;;-145.63;54.05;38414.16;5025185;28;20025;-65
2023/08/11 07:14:42;;;;;;;11.80;10.60;;;;;;;-145.63;53.62;38410.22;5043100;28;20029;-65
2023/08/11 07:17:08;;;;;;;13.32;10.52;;;;;;;-145.63;53.40;38371.13;5044939;28;20325;-65
2023/08/11 07:19:34;;;;;;;14.25;10.90;;;;;;;-145.63;53.63;38355.50;5035839;28;20049;-65
2023/08/11 07:22:00;;;;;;;12.25;10.85;;;;;;;-145.63;52.67;38328.13;5029045;28;20025;-65
2023/08/11 07:24:25;;;;;;;11.88;10.00;;;;;;;-145.63;52.57;38361.34;5045028;28;20025;-66
2023/08/11 07:26:51;;;;;;;13.52;10.70;;;;;;;-145.63;52.64;38322.25;5025386;28;20275;-66
2023/08/11 07:29:18;;;;;;;11.65;10.45;;;;;;;-145.63;52.56;38316.38;5024985;28;20030;-66
2023/08/11 07:31:44;;;;;;;12.88;10.10;;;;;;;-145.63;52.46;38314.44;5034759;28;20286;-67
2023/08/11 07:34:09;;;;;;;11.73;9.63;;;;;;;-145.63;51.58;38339.84;5039290;28;20030;-67
2023/08/11 07:36:36;;;;;;;11.10;9.93;;;;;;;-145.63;51.40;38322.25;5025397;28;20026;-66
2023/08/11 07:39:01;;;;;;;11.27;9.10;;;;;;;-145.63;50.93;38271.41;5044927;28;20032;-66
2023/08/11 07:41:27;;;;;;;10.77;9.15;;;;;;;-145.63;51.00;38255.78;5038366;28;20026;-65
2023/08/11 07:43:52;;;;;;;10.00;8.80;;;;;;;-145.63;49.81;38246.00;5038880;28;20044;-67
2023/08/11 07:46:18;;;;;;;13.10;9.45;;;;;;;-145.63;50.16;38289.00;5044252;28;20094;-66
2023/08/11 07:48:44;;;;;;;11.30;9.52;;;;;;;-145.63;50.01;38242.09;5042658;28;20025;-65
2023/08/11 07:51:09;;;;;;;11.27;9.00;;;;;;;-145.63;49.84;38199.06;5024784;28;20018;-65
2023/08/11 07:53:36;;;;;;;11.95;9.32;;;;;;;-145.63;49.44;38265.53;5041262;28;20044;-66
2023/08/11 07:56:02;;;;;;;10.52;8.35;;;;;;;-145.63;49.65;38208.84;5031812;28;20334;-63
2023/08/11 07:58:28;;;;;;;11.35;8.88;;;;;;;-145.63;48.64;38191.25;5024441;28;20032;-63
2023/08/11 08:00:53;;;;;;;9.00;8.07;;;;;;;-145.63;48.78;38167.78;5024281;28;20030;-66
2023/08/11 08:03:19;;;;;;;10.52;8.10;;;;;;;-145.63;48.95;38171.69;5024160;28;20057;-66
2023/08/11 08:05:44;;;;;;;9.65;8.15;;;;;;;-145.63;48.16;38177.56;5042251;28;20021;-66
2023/08/11 08:08:11;;;;;;;10.10;7.68;;;;;;;-145.63;48.29;38167.78;5030597;28;20037;-67
2023/08/11 08:10:37;;;;;;;9.80;8.00;;;;;;;-145.63;48.20;38185.38;5032814;28;20025;-67
2023/08/11 08:13:03;;;;;;;11.00;7.10;;;;;;;-145.63;47.53;38134.53;5039703;28;20033;-67
2023/08/11 08:15:29;;;;;;;8.50;7.50;;;;;;;-145.63;47.35;38107.19;5024028;28;20226;-68
2023/08/11 08:17:55;;;;;;;13.23;8.10;;;;;;;-145.63;47.48;38036.78;5042992;28;20041;-66
2023/08/11 08:20:21;;;;;;;7.82;6.72;;;;;;;-145.63;46.48;38118.91;5028542;28;20247;-67
2023/08/11 08:22:46;;;;;;;9.63;7.45;;;;;;;-145.63;46.58;38011.38;5022991;28;20029;-68
2023/08/11 08:25:12;;;;;;;8.90;6.75;;;;;;;-145.63;45.85;38003.56;5023929;28;20050;-65
2023/08/11 08:27:40;;;;;;;7.60;6.80;;;;;;;-145.63;46.13;37956.63;5024080;28;20044;-66
2023/08/11 08:30:07;;;;;;;7.30;6.13;;;;;;;-145.63;45.81;37982.03;5022845;28;20029;-67
2023/08/11 08:32:34;;;;;;;7.35;6.40;;;;;;;-145.63;45.79;37984.00;5039968;28;20160;-66
2023/08/11 08:35:00;;;;;;;9.82;7.05;;;;;;;-145.63;46.03;38015.28;5031915;28;20029;-67
2023/08/11 08:37:28;;;;;;;7.18;6.47;;;;;;;-145.63;46.38;38060.25;5024290;28;20104;-67
2023/08/11 08:39:54;;;;;;;9.82;6.22;;;;;;;-145.63;46.17;38050.47;5023329;28;20039;-67
2023/08/11 08:42:21;;;;;;;8.57;6.10;;;;;;;-145.63;45.96;38079.81;5039586;28;20302;-67
2023/08/11 08:44:52;;;;;;;6.88;6.18;;;;;;;-145.63;45.90;38046.56;5038109;28;20036;-69
2023/08/11 08:47:19;;;;;;;6.50;5.90;;;;;;;-145.63;45.63;38120.88;5029117;28;20315;-68
2023/08/11 08:49:48;;;;;;;6.80;6.10;;;;;;;-145.63;45.80;38113.03;5032817;28;20033;-67
2023/08/11 08:52:15;;;;;;;7.20;6.50;;;;;;;-145.63;46.47;38089.56;5038187;28;20053;-68
2023/08/11 08:54:41;;;;;;;6.55;5.95;;;;;;;-145.63;46.83;38144.31;5024333;28;20242;-67
2023/08/11 08:57:10;;;;;;;8.50;6.47;;;;;;;-145.63;47.69;38179.50;5043548;28;20029;-67
2023/08/11 08:59:39;;;;;;;10.10;7.07;;;;;;;-145.63;47.13;38115.00;5026320;28;20029;-68
2023/08/11 09:02:06;;;;;;;7.22;6.45;;;;;;;-145.63;47.50;38136.50;5035864;28;20025;-69
2023/08/11 09:04:33;;;;;;;8.10;6.80;;;;;;;-145.63;47.59;38152.16;5038574;28;20076;-66
2023/08/11 09:07:00;;;;;;;8.75;7.20;;;;;;;-145.63;47.93;38116.94;5026612;28;20116;-67
2023/08/11 09:09:29;;;;;;;8.82;7.68;;;;;;;-145.63;48.30;38156.06;5043215;28;20064;-68
2023/08/11 09:11:55;;;;;;;8.38;7.20;;;;;;;-145.63;48.73;38154.09;5038357;28;20030;-67
2023/08/11 09:14:22;;;;;;;10.52;7.75;;;;;;;-145.63;48.90;38189.28;5023311;28;20196;-67
2023/08/11 09:16:50;;;;;;;9.63;7.85;;;;;;;-145.63;49.17;38175.59;5023279;28;20093;-68
2023/08/11 09:19:15;;;;;;;10.65;7.85;;;;;;;-145.63;49.58;38154.09;5028608;28;20034;-67
2023/08/11 09:21:43;;;;;;;9.18;8.18;;;;;;;-145.63;49.67;38169.75;5042177;28;20032;-67
2023/08/11 09:24:13;;;;;;;11.90;8.73;;;;;;;-145.63;49.62;38189.28;5022972;28;20033;-67
2023/08/11 09:26:43;;;;;;;10.75;8.18;;;;;;;-145.63;49.39;38159.97;5039651;28;20096;-67
2023/08/11 09:29:09;;;;;;;13.05;8.60;;;;;;;-145.63;49.80;38159.97;5041699;28;20037;-67
2023/08/11 09:31:36;;;;;;;9.20;8.30;;;;;;;-145.63;49.91;37835.41;5034968;28;20022;-67
2023/08/11 09:34:16;;;;;;;9.82;8.75;;;;;;;-145.63;49.36;38105.22;5029307;28;20033;-66
2023/08/11 09:36:42;;;;;;;9.77;8.75;;;;;;;-145.63;49.22;38146.28;5042266;28;20060;-66
2023/08/11 09:39:08;;;;;;;9.77;8.43;;;;;;;-145.63;49.67;38140.41;5022925;28;20042;-66
2023/08/11 09:41:48;;;;;;;9.63;8.30;;;;;;;-145.63;49.67;38132.59;5027568;28;20048;-66
2023/08/11 09:44:15;;;;;;;11.43;8.00;;;;;;;-145.63;50.01;38191.25;5035052;28;20026;-66
2023/08/11 09:46:42;;;;;;;9.57;8.43;;;;;;;-145.63;50.29;38191.25;5042319;28;20052;-68
2023/08/11 09:49:08;;;;;;;11.90;9.13;;;;;;;-145.63;50.85;38165.84;5023230;28;20326;-66
2023/08/11 09:51:35;;;;;;;12.45;9.60;;;;;;;-145.63;51.51;38177.56;5022559;28;20188;-67
2023/08/11 09:54:10;;;;;;;11.70;9.82;;;;;;;-145.63;51.94;37475.72;5041681;28;20036;-65
2023/08/11 09:56:39;;;;;;;12.55;9.90;;;;;;;-145.63;52.86;38238.16;5042095;28;20025;-65
2023/08/11 09:59:12;;;;;;;10.30;9.18;;;;;;;-145.63;53.39;38271.41;5042237;28;20029;-67
2023/08/11 10:01:42;;;;;;;10.77;9.68;;;;;;;-145.63;52.86;38246.00;5034365;28;20026;-67
2023/08/11 10:04:12;;;;;;;10.57;9.48;;;;;;;-145.63;53.22;38206.88;5022606;28;20108;-67
2023/08/11 10:06:42;;;;;;;11.15;9.23;;;;;;;-145.63;53.12;38263.59;5022804;28;20042;-67
2023/08/11 10:09:12;;;;;;;11.38;9.90;;;;;;;-145.63;53.23;38204.94;5021482;28;20145;-66
2023/08/11 10:11:40;;;;;;;11.23;10.15;;;;;;;-145.63;52.81;38187.34;5039866;28;20028;-66
2023/08/11 10:14:08;;;;;;;10.82;9.85;;;;;;;-145.63;53.25;38191.25;5045931;28;20100;-66
2023/08/11 10:16:35;;;;;;;10.10;9.02;;;;;;;-145.63;52.30;38216.66;5038880;28;20093;-66
2023/08/11 10:19:01;;;;;;;10.65;9.63;;;;;;;-145.63;52.07;38159.97;5028748;28;20059;-66
2023/08/11 10:21:27;;;;;;;10.35;8.90;;;;;;;-145.63;52.63;38163.88;5045155;28;20057;-66
2023/08/11 10:23:56;;;;;;;10.20;9.15;;;;;;;-145.63;51.44;38130.63;5030939;28;20065;-67
2023/08/11 10:26:23;;;;;;;10.43;9.30;;;;;;;-145.63;51.07;38116.94;5030643;28;20220;-67
2023/08/11 10:28:50;;;;;;;11.07;9.57;;;;;;;-145.63;50.37;38105.22;5033618;28;20028;-66
2023/08/11 10:31:16;;;;;;;9.70;8.77;;;;;;;-145.63;50.26;38101.31;5032889;28;20261;-66
2023/08/11 10:33:49;;;;;;;10.77;9.68;;;;;;;-145.63;50.24;38116.94;5028213;28;20060;-66
2023/08/11 10:36:23;;;;;;;12.25;9.38;;;;;;;-145.63;50.14;38091.53;5033954;28;20047;-67
2023/08/11 10:39:06;;;;;;;12.02;9.07;;;;;;;-145.63;49.99;37610.59;5026192;28;20184;-66
2023/08/11 10:41:33;;;;;;;10.88;8.45;;;;;;;-145.63;49.71;38077.84;5032326;28;20037;-66
2023/08/11 10:43:58;;;;;;;9.48;8.48;;;;;;;-145.63;48.98;38105.22;5038606;28;20028;-67
2023/08/11 10:46:32;;;;;;;10.75;8.70;;;;;;;-145.63;49.06;38132.59;5029811;28;20229;-67
2023/08/11 10:49:18;;;;;;;11.05;8.80;;;;;;;-145.63;48.99;38103.25;5027714;28;20048;-66
2023/08/11 10:51:44;;;;;;;10.15;9.10;;;;;;;-145.63;49.31;38101.31;5036913;28;20065;-66
2023/08/11 10:54:11;;;;;;;9.98;8.32;;;;;;;-145.63;49.04;38105.22;5044284;28;20032;-65
2023/08/11 10:56:42;;;;;;;9.88;8.93;;;;;;;-145.63;48.68;38120.88;5045270;28;20194;-67
2023/08/11 10:59:25;;;;;;;15.65;9.23;;;;;;;-145.63;49.17;38113.03;5032637;28;20030;-67
2023/08/11 11:01:54;;;;;;;8.95;8.07;;;;;;;-145.63;48.96;38066.13;5025100;28;20214;-65
2023/08/11 11:04:29;;;;;;;18.65;11.07;;;;;;;-145.63;49.19;38085.66;5030324;28;20047;-67
2023/08/11 11:06:56;;;;;;;10.25;9.20;;;;;;;-145.63;48.90;38050.47;5044704;28;20044;-66
2023/08/11 11:09:22;;;;;;;12.90;9.05;;;;;;;-145.63;48.93;38064.16;5045202;28;20030;-66
2023/08/11 11:11:48;;;;;;;13.82;9.32;;;;;;;-145.63;48.71;38066.13;5040328;28;20033;-65